Flight Track Log - Related Links

Times and Time Zones

All times are in EST time to prevent confusion due to time zone crossing. See the EJA831 flight status page for this flight to view local times or setup timezone preferences in your user account.

Time Position Orientation Groundspeed Altitude Reporting Facility
EST Latitude Longitude Course Direction KTS MPH feet Rate Location/Type
Tue 03:57:09 PM 35.2350 -101.8611 280° West 225 259 11,900  Level Albuquerque Center
Tue 03:58:11 PM 35.2478 -101.9503 280° West 257 296 15,600 3,610 Climbing Albuquerque Center
Tue 03:59:12 PM 35.2628 -102.0592 280° West 269 310 19,300 3,171 Climbing Albuquerque Center
Tue 04:00:14 PM 35.2761 -102.1544 280° West 281 323 22,100 2,468 Climbing Albuquerque Center
Tue 04:01:00 PM 35.2156 -102.3991 280° West  Level Estimated
Tue 04:01:16 PM 35.2894 -102.2483 280° West 281 323 24,400  Level Albuquerque Center
Tue 04:02:18 PM 35.3028 -102.3444 280° West 286 329 26,700 2,081 Climbing Albuquerque Center
Tue 04:03:20 PM 35.3158 -102.4403 280° West 287 330 28,700 1,935 Climbing Albuquerque Center
Tue 04:04:22 PM 35.3297 -102.5358 280° West 285 328 30,700 2,098 Climbing Albuquerque Center
Tue 04:05:23 PM 35.3442 -102.6436 279° West 280 322 33,000 1,854 Climbing Albuquerque Center
Tue 04:06:25 PM 35.3564 -102.7372 279° West 277 319 34,500 1,355 Climbing Albuquerque Center
Tue 04:07:27 PM 35.3703 -102.8292 281° West 274 315 35,800 1,113 Climbing Albuquerque Center
Tue 04:08:29 PM 35.3817 -102.9256 278° West 280 322 36,800 1,016 Climbing Albuquerque Center
Tue 04:09:31 PM 35.3958 -103.0236 280° West 287 330 37,900 968 Climbing Albuquerque Center
Tue 04:10:33 PM 35.4094 -103.1214 280° West 289 333 38,800 732 Climbing Albuquerque Center
Tue 04:11:34 PM 35.4208 -103.2181 278° West 286 329 39,400 585 Climbing Albuquerque Center
Tue 04:12:36 PM 35.4361 -103.3339 279° West 291 335 40,000 290 Climbing Albuquerque Center
Tue 04:13:38 PM 35.4500 -103.4358 280° West 298 343 40,000  Level Albuquerque Center
Tue 04:14:40 PM 35.4633 -103.5433 279° West 312 359 40,000  Level Albuquerque Center
Tue 04:15:41 PM 35.4778 -103.6517 279° West 318 366 40,000  Level Albuquerque Center
Tue 04:16:43 PM 35.4917 -103.7594 279° West 319 367 40,000  Level Albuquerque Center
Tue 04:17:45 PM 35.5056 -103.8686 279° West 321 369 40,000  Level Albuquerque Center
Tue 04:18:47 PM 35.5194 -103.9789 279° West 325 374 40,000  Level Albuquerque Center
Tue 04:19:49 PM 35.5333 -104.0892 279° West 327 376 40,000  Level Albuquerque Center
Tue 04:20:50 PM 35.5483 -104.2186 278° West 328 377 40,000  Level Albuquerque Center
Tue 04:21:52 PM 35.5631 -104.3300 279° West 330 380 40,000  Level Albuquerque Center
Tue 04:22:54 PM 35.5750 -104.4414 278° West 329 379 40,000  Level Albuquerque Center
Tue 04:23:56 PM 35.5883 -104.5528 278° West 329 379 40,000  Level Albuquerque Center
Tue 04:24:57 PM 35.6017 -104.6650 278° West 330 380 40,000  Level Albuquerque Center
Tue 04:25:59 PM 35.6158 -104.7781 279° West 331 381 40,000  Level Albuquerque Center
Tue 04:27:01 PM 35.6286 -104.8917 278° West 334 384 40,000  Level Albuquerque Center
Tue 04:28:03 PM 35.6439 -105.0244 278° West 335 386 40,000  Level Albuquerque Center
Tue 04:29:04 PM 35.6558 -105.1383 277° West 335 386 40,000  Level Albuquerque Center
Tue 04:30:06 PM 35.6528 -105.2511 268° West 329 379 40,000  Level Albuquerque Center
Tue 04:31:08 PM 35.6483 -105.3667 267° West 334 384 40,000  Level Albuquerque Center
Tue 04:32:10 PM 35.6453 -105.4808 268° West 332 382 40,000  Level Albuquerque Center
Tue 04:33:11 PM 35.6414 -105.5964 268° West 338 389 40,000  Level Albuquerque Center
Tue 04:34:13 PM 35.6358 -105.7111 267° West 338 389 40,000  Level Albuquerque Center
Tue 04:35:15 PM 35.6333 -105.8200 268° West 332 382 40,000  Level Albuquerque Center
Tue 04:36:16 PM 35.6278 -105.9358 267° West 330 380 40,000  Level Albuquerque Center
Tue 04:37:18 PM 35.6217 -106.0694 267° West 329 379 40,000  Level Albuquerque Center
Tue 04:38:20 PM 35.6192 -106.1814 268° West 330 380 40,000  Level Albuquerque Center
Tue 04:39:22 PM 35.6125 -106.2994 266° West 328 377 40,000  Level Albuquerque Center
Tue 04:40:23 PM 35.6083 -106.4117 267° West 329 379 40,000  Level Albuquerque Center
Tue 04:41:25 PM 35.6022 -106.5314 266° West 328 377 40,000  Level Albuquerque Center
Tue 04:42:27 PM 35.5975 -106.6467 267° West 336 387 40,000  Level Albuquerque Center
Tue 04:43:29 PM 35.5919 -106.7672 267° West 332 382 40,000  Level Albuquerque Center
Tue 04:44:30 PM 35.5864 -106.8806 267° West 333 383 40,000  Level Albuquerque Center
Tue 04:45:32 PM 35.5806 -106.9956 266° West 337 388 40,000  Level Albuquerque Center
Tue 04:46:34 PM 35.5753 -107.1183 267° West 336 387 40,000  Level Albuquerque Center
Tue 04:47:35 PM 35.5717 -107.2300 268° West 339 390 40,000  Level Albuquerque Center
Tue 04:48:37 PM 35.5650 -107.3406 266° West 339 390 40,000  Level Albuquerque Center
Tue 04:49:39 PM 35.5581 -107.4703 266° West 340 391 40,000  Level Albuquerque Center
Tue 04:50:40 PM 35.5514 -107.5833 266° West 343 395 40,000  Level Albuquerque Center
Tue 04:51:42 PM 35.5444 -107.7153 266° West 346 398 40,000  Level Albuquerque Center
Tue 04:52:44 PM 35.5383 -107.8267 266° West 344 396 40,000  Level Albuquerque Center
Tue 04:53:46 PM 35.5311 -107.9606 266° West 348 400 40,000  Level Albuquerque Center
Tue 04:54:48 PM 35.5242 -108.0739 266° West 348 400 40,000  Level Albuquerque Center
Tue 04:55:49 PM 35.5181 -108.1875 266° West 348 400 40,000  Level Albuquerque Center
Tue 04:56:51 PM 35.5100 -108.3181 266° West 345 397 40,000  Level Albuquerque Center
Tue 04:57:53 PM 35.5036 -108.4317 266° West 346 398 40,000  Level Albuquerque Center
Tue 04:58:55 PM 35.4953 -108.5633 266° West 345 397 40,000  Level Albuquerque Center
Tue 04:59:57 PM 35.4886 -108.6769 266° West 346 398 40,000  Level Albuquerque Center
Tue 05:00:58 PM 35.4808 -108.8097 266° West 348 400 40,000  Level Albuquerque Center
Tue 05:02:00 PM 35.4717 -108.9239 264° West 349 402 40,000  Level Albuquerque Center
Tue 05:03:02 PM 35.4581 -109.0369 262° West 349 402 40,000  Level Albuquerque Center
Tue 05:04:04 PM 35.4450 -109.1689 263° West 348 400 40,000  Level Albuquerque Center
Tue 05:05:06 PM 35.4336 -109.2850 263° West 353 406 40,000  Level Albuquerque Center
Tue 05:06:07 PM 35.4186 -109.4158 262° West 348 400 40,000  Level Albuquerque Center
Tue 05:07:09 PM 35.4061 -109.5283 262° West 348 400 40,000  Level Albuquerque Center
Tue 05:08:11 PM 35.3947 -109.6403 263° West 345 397 40,000  Level Albuquerque Center
Tue 05:09:13 PM 35.3794 -109.7681 262° West 342 394 40,000  Level Albuquerque Center
Tue 05:10:15 PM 35.3664 -109.8778 262° West 340 391 40,000  Level Albuquerque Center
Tue 05:11:16 PM 35.3506 -110.0072 262° West 341 392 40,000  Level Albuquerque Center
Tue 05:12:18 PM 35.3375 -110.1172 262° West 342 394 40,000  Level Albuquerque Center
Tue 05:13:20 PM 35.3233 -110.2450 262° West 341 392 40,000  Level Albuquerque Center
Tue 05:14:22 PM 35.3089 -110.3561 261° West 343 395 40,000  Level Albuquerque Center
Tue 05:15:23 PM 35.2942 -110.4667 261° West 343 395 40,000  Level Albuquerque Center
Tue 05:16:25 PM 35.2775 -110.5969 261° West 347 399 40,000  Level Albuquerque Center
Tue 05:17:27 PM 35.2650 -110.7075 262° West 345 397 40,000  Level Albuquerque Center
Tue 05:18:29 PM 35.2497 -110.8392 262° West 348 400 40,000  Level Albuquerque Center
Tue 05:19:30 PM 35.2358 -110.9539 262° West 354 407 40,000  Level Albuquerque Center
Tue 05:20:32 PM 35.2189 -111.0847 261° West 351 404 40,000  Level Albuquerque Center
Tue 05:21:34 PM 35.2056 -111.2069 262° West 359 413 40,000  Level Albuquerque Center
Tue 05:22:35 PM 35.1900 -111.3239 261° West 354 407 40,000  Level Albuquerque Center
Tue 05:23:37 PM 35.1756 -111.4447 262° West 357 411 40,000  Level Albuquerque Center
Tue 05:24:39 PM 35.1603 -111.5628 261° West 356 410 40,000  Level Albuquerque Center
Tue 05:25:41 PM 35.1447 -111.6825 261° West 357 411 40,000  Level Albuquerque Center
Tue 05:26:42 PM 35.1294 -111.8050 261° West 356 410 40,000  Level Albuquerque Center
Tue 05:27:44 PM 35.1147 -111.9258 262° West 359 413 40,000  Level Albuquerque Center
Tue 05:28:46 PM 35.0958 -112.0700 261° West 359 413 40,000  Level Albuquerque Center
Tue 05:29:48 PM 35.0797 -112.1914 261° West 362 417 40,000  Level Albuquerque Center
Tue 05:30:49 PM 35.0653 -112.3136 262° West 363 418 40,000  Level Albuquerque Center
Tue 05:31:51 PM 35.0489 -112.4358 261° West 365 420 40,000  Level Albuquerque Center
Tue 05:32:53 PM 35.0331 -112.5581 261° West 365 420 40,000  Level Albuquerque Center
Tue 05:33:55 PM 35.0175 -112.6814 261° West 366 421 40,000  Level Albuquerque Center
Tue 05:34:56 PM 35.0008 -112.8053 261° West 368 423 40,000  Level Albuquerque Center
Tue 05:35:58 PM 34.9844 -112.9289 261° West 368 423 40,000  Level Albuquerque Center
Tue 05:37:00 PM 34.9639 -113.0769 260° West 368 423 40,000  Level Albuquerque Center
Tue 05:38:01 PM 34.9472 -113.1992 261° West 366 421 40,000  Level Albuquerque Center
Tue 05:39:03 PM 34.9408 -113.3217 266° West 363 418 40,000  Level Albuquerque Center
Tue 05:40:05 PM 34.9361 -113.4450 267° West 363 418 40,000  Level Albuquerque Center
Tue 05:41:07 PM 34.9322 -113.5672 268° West 363 418 40,000  Level Albuquerque Center
Tue 05:42:08 PM 34.9269 -113.6903 267° West 364 419 40,000  Level Albuquerque Center
Tue 05:43:10 PM 34.9233 -113.8128 268° West 363 418 40,000  Level Albuquerque Center
Tue 05:44:12 PM 34.9183 -113.9358 267° West 365 420 40,000  Level Albuquerque Center
Tue 05:45:31 PM 34.9122 -114.1056 268° West 368 423 40,000  Level Los Angeles Center
Tue 05:46:33 PM 34.9061 -114.2542 267° West 367 422 40,000  Level Los Angeles Center
Tue 05:47:36 PM 34.9011 -114.3792 267° West 369 425 40,000 -720 Level Los Angeles Center
Tue 05:48:38 PM 34.8961 -114.5025 267° West 365 420 38,500 -1,548 Descending Los Angeles Center
Tue 05:49:40 PM 34.8900 -114.6258 267° West 364 419 36,800 -1,597 Descending Los Angeles Center
Tue 05:50:42 PM 34.8850 -114.7517 267° West 370 426 35,200 -1,355 Descending Los Angeles Center
Tue 05:51:44 PM 34.8794 -114.8747 267° West 366 421 34,000 -581 Descending Los Angeles Center
Tue 05:52:46 PM 34.8731 -115.0242 267° West 367 422 34,000  Level Los Angeles Center
Tue 05:53:48 PM 34.8667 -115.1500 266° West 370 426 34,000  Level Los Angeles Center
Tue 05:54:50 PM 34.8606 -115.2817 267° West 385 443 34,000  Level Los Angeles Center
Tue 05:56:04 PM 34.8544 -115.4139 267° West 390 449 34,000 -350 Level Los Angeles Center
Tue 05:57:07 PM 34.8458 -115.5792 266° West 391 450 33,200 -1,008 Descending Los Angeles Center
Tue 05:58:09 PM 34.8389 -115.7108 266° West 391 450 31,900 -1,355 Descending Los Angeles Center
Tue 05:59:11 PM 34.8311 -115.8478 266° West 402 463 30,400 -1,403 Descending Los Angeles Center
Tue 06:00:13 PM 34.8233 -115.9872 266° West 411 473 29,000 -1,403 Descending Los Angeles Center
Tue 06:01:15 PM 34.8158 -116.1253 266° West 411 473 27,500 -1,548 Descending Los Angeles Center
Tue 06:02:17 PM 34.8067 -116.2906 266° West 410 472 25,800 -1,500 Descending Los Angeles Center
Tue 06:03:19 PM 34.7997 -116.4236 266° West 400 460 24,400 -1,324 Descending Los Angeles Center
Tue 06:04:33 PM 34.7883 -116.5539 264° West 390 449 22,800 -1,489 Descending Los Angeles Center
Tue 06:05:36 PM 34.7725 -116.7119 263° West 392 451 21,000 -1,314 Descending Los Angeles Center
Tue 06:06:50 PM 34.7600 -116.8408 263° West 385 443 19,800 -1,368 Descending Los Angeles Center
Tue 06:07:52 PM 34.7442 -116.9933 263° West 379 436 17,900 -1,645 Descending Los Angeles Center
Tue 06:08:54 PM 34.7289 -117.1442 263° West 377 434 16,400 -1,452 Descending Los Angeles Center
Tue 06:09:56 PM 34.7153 -117.2681 262° West 369 425 14,900 -1,355 Descending Los Angeles Center
Tue 06:10:58 PM 34.7036 -117.3875 263° West 357 411 13,600 -882 Descending Los Angeles Center
Tue 06:12:12 PM 34.6903 -117.5014 262° West 345 397 12,900 -604 Descending Los Angeles Center
Tue 06:13:27 PM 34.6781 -117.6272 263° West 318 366 12,100 -701 Descending Los Angeles Center
Tue 06:14:29 PM 34.6636 -117.7606 263° West 329 379 11,300 -726 Descending Los Angeles Center
Tue 06:15:31 PM 34.6528 -117.8714 263° West 331 381 10,600 -706 Descending Los Angeles Center
Tue 06:16:45 PM 34.6400 -117.9911 263° West 296 341 9,700 -832 Descending Los Angeles Center
Tue 06:17:48 PM 34.6144 -118.0931 253° West 282 325 8,700 -816 Descending Los Angeles Center
Tue 06:18:50 PM 34.5658 -118.1719 233° Southwest 270 311 8,000 -339 Descending Los Angeles Center
Tue 06:19:52 PM 34.5206 -118.2414 232° Southwest 260 299 8,000 48 Level Los Angeles Center
Tue 06:20:54 PM 34.4739 -118.3031 227° Southwest 258 297 8,100 48 Climbing Los Angeles Center
Tue 06:21:56 PM 34.3986 -118.2981 177° South 265 305 8,100 -532 Level Los Angeles Center
Tue 06:22:58 PM 34.3281 -118.2908 175° South 257 296 7,000 -532 Descending Los Angeles Center
Tue 06:24:00 PM 34.2617 -118.2839 175° South 245 282 7,000 -242 Level Los Angeles Center
Tue 06:25:02 PM 34.1936 -118.2822 179° South 214 246 6,500 -919 Descending Los Angeles Center
Tue 06:26:04 PM 34.1461 -118.3186 212° Southwest 203 234 5,100 -1,113 Descending Los Angeles Center
Tue 06:27:06 PM 34.1050 -118.3472 210° Southwest 184 212 4,200 -1,113 Descending Los Angeles Center
Tue 06:28:08 PM 34.0775 -118.3764 221° Southwest 145 167 2,800 -1,113 Descending Los Angeles Center
Tue 06:29:10 PM 34.0567 -118.4008 224° Southwest 137 158 1,900 -1,152 Descending Los Angeles Center
Tue 06:30:13 PM 34.0250 -118.4411 227° Southwest 125 144 400 -816 Descending Los Angeles Center
Tue 06:31:15 PM 34.0036 -118.4675 226° Southwest 123 142 200 -194 Descending Los Angeles Center
Tue 06:33:00 PM 34.0000 -118.4500 244° Southwest  Level FlightAware Approximate

Login

Don't have an account? Register now (free) for customized features, flight alerts, and more!